createdAt,value
2018-12-18T00:00:23.024Z,2.48
2018-12-18T00:01:23.014Z,2.60
2018-12-18T00:02:23.019Z,2.63
2018-12-18T00:03:23.033Z,2.56
2018-12-18T00:04:22.978Z,2.54
2018-12-18T00:05:22.970Z,2.57
2018-12-18T00:06:22.958Z,2.53
2018-12-18T00:07:22.958Z,2.56
2018-12-18T00:08:22.934Z,2.49
2018-12-18T00:09:22.929Z,2.57
2018-12-18T00:10:22.918Z,2.57
2018-12-18T00:11:22.906Z,2.60
2018-12-18T00:12:22.892Z,2.46
2018-12-18T00:13:22.901Z,2.54
2018-12-18T00:14:22.876Z,2.46
2018-12-18T00:15:22.861Z,2.54
2018-12-18T00:16:22.853Z,2.48
2018-12-18T00:17:22.851Z,2.49
2018-12-18T00:18:22.828Z,2.57
2018-12-18T00:19:22.821Z,2.45
2018-12-18T00:20:22.808Z,2.56
2018-12-18T00:21:22.799Z,2.54
2018-12-18T00:22:22.788Z,2.52
2018-12-18T00:23:22.785Z,2.52
2018-12-18T00:24:22.767Z,2.57
2018-12-18T00:25:22.766Z,2.46
2018-12-18T00:26:22.756Z,2.46
2018-12-18T00:27:22.734Z,2.54
2018-12-18T00:28:22.723Z,2.46
2018-12-18T00:29:22.712Z,2.48
2018-12-18T00:30:22.703Z,2.49
2018-12-18T00:31:22.729Z,2.53
2018-12-18T00:32:22.683Z,2.52
2018-12-18T00:33:22.673Z,2.49
2018-12-18T00:34:22.655Z,2.57
2018-12-18T00:35:22.651Z,2.57
2018-12-18T00:36:22.667Z,2.49
2018-12-18T00:37:22.640Z,2.57
2018-12-18T00:38:22.617Z,2.63
2018-12-18T00:39:22.605Z,2.66
2018-12-18T00:40:22.594Z,2.56
2018-12-18T00:41:22.584Z,2.53
2018-12-18T00:42:22.579Z,2.59
2018-12-18T00:43:22.570Z,2.63
2018-12-18T00:44:22.553Z,2.64
2018-12-18T00:45:22.551Z,2.56
2018-12-18T00:46:22.535Z,2.59
2018-12-18T00:47:22.521Z,2.60
2018-12-18T00:48:22.516Z,2.59
2018-12-18T00:49:22.524Z,2.60
2018-12-18T00:50:22.493Z,2.57
2018-12-18T00:51:22.479Z,2.67
2018-12-18T00:52:22.469Z,2.61
2018-12-18T00:53:22.454Z,2.60
2018-12-18T00:54:22.443Z,2.60
2018-12-18T00:55:22.449Z,2.60
2018-12-18T00:56:22.424Z,2.64
2018-12-18T00:57:22.409Z,2.59
2018-12-18T00:58:22.438Z,2.60
2018-12-18T00:59:22.396Z,2.66
2018-12-18T01:00:22.391Z,2.63
2018-12-18T01:01:22.369Z,2.63
2018-12-18T01:02:22.373Z,2.61
2018-12-18T01:03:22.342Z,2.63
2018-12-18T01:04:22.332Z,2.63
2018-12-18T01:05:22.327Z,2.67
2018-12-18T01:06:22.320Z,2.67
2018-12-18T01:07:22.306Z,2.72
2018-12-18T01:08:22.297Z,2.66
2018-12-18T01:09:22.306Z,2.67
2018-12-18T01:10:22.274Z,2.64
2018-12-18T01:11:22.273Z,2.60
2018-12-18T01:12:22.278Z,2.66
2018-12-18T01:13:22.244Z,2.71
2018-12-18T01:14:22.234Z,2.64
2018-12-18T01:15:22.224Z,2.63
2018-12-18T01:16:22.230Z,2.61
2018-12-18T01:17:22.232Z,2.61
2018-12-18T01:18:22.212Z,2.63
2018-12-18T01:19:22.179Z,2.61
2018-12-18T01:20:22.166Z,2.69
2018-12-18T01:21:22.156Z,2.69
2018-12-18T01:22:22.166Z,2.72
2018-12-18T01:23:22.148Z,2.57
2018-12-18T01:24:22.146Z,2.69
2018-12-18T01:25:22.142Z,2.74
2018-12-18T01:26:22.106Z,2.66
2018-12-18T01:27:22.091Z,2.79
2018-12-18T01:28:22.078Z,2.72
2018-12-18T01:29:22.074Z,2.66
2018-12-18T01:30:22.069Z,2.75
2018-12-18T01:31:22.058Z,2.66
2018-12-18T01:32:22.035Z,2.69
2018-12-18T01:33:22.028Z,2.79
2018-12-18T01:34:22.020Z,2.71
2018-12-18T01:35:22.015Z,2.79
2018-12-18T01:36:22.014Z,2.77
2018-12-18T01:37:21.985Z,2.74
2018-12-18T01:38:21.974Z,2.78
2018-12-18T01:39:21.964Z,2.72
2018-12-18T01:40:21.955Z,2.77
2018-12-18T01:41:21.939Z,2.75
2018-12-18T01:42:21.955Z,2.77
2018-12-18T01:43:21.918Z,2.74
2018-12-18T01:44:21.908Z,2.72
2018-12-18T01:45:21.900Z,2.77
2018-12-18T01:46:21.890Z,2.84
2018-12-18T01:47:21.891Z,2.85
2018-12-18T01:48:21.881Z,2.87
2018-12-18T01:49:21.858Z,2.78
2018-12-18T01:50:21.843Z,2.87
2018-12-18T01:51:21.834Z,2.89
2018-12-18T01:52:21.825Z,2.89
2018-12-18T01:53:21.829Z,2.85
2018-12-18T01:54:21.826Z,2.97
2018-12-18T01:55:21.789Z,2.92
2018-12-18T01:56:21.798Z,2.89
2018-12-18T01:57:21.783Z,2.90
2018-12-18T01:58:21.763Z,2.95
2018-12-18T01:59:21.749Z,2.87
2018-12-18T02:00:21.737Z,2.89
2018-12-18T02:01:21.733Z,2.84
2018-12-18T02:02:21.715Z,2.89
2018-12-18T02:03:21.716Z,2.84
2018-12-18T02:04:21.695Z,2.89
2018-12-18T02:05:21.699Z,2.85
2018-12-18T02:06:21.678Z,2.90
2018-12-18T02:07:21.663Z,2.89
2018-12-18T02:08:21.653Z,2.96
2018-12-18T02:09:21.639Z,2.93
2018-12-18T02:10:21.628Z,2.93
2018-12-18T02:11:21.640Z,3.00
2018-12-18T02:12:21.607Z,2.93
2018-12-18T02:13:21.595Z,2.90
2018-12-18T02:14:21.587Z,3.05
2018-12-18T02:15:21.587Z,2.90
2018-12-18T02:16:21.569Z,2.93
2018-12-18T02:17:21.561Z,2.95
2018-12-18T02:18:21.542Z,3.00
2018-12-18T02:19:21.531Z,3.06
2018-12-18T02:20:21.528Z,3.03
2018-12-18T02:21:21.505Z,3.03
2018-12-18T02:22:21.501Z,2.99
2018-12-18T02:23:21.494Z,3.08
2018-12-18T02:24:21.528Z,3.00
2018-12-18T02:25:21.476Z,3.00
2018-12-18T02:26:21.460Z,3.05
2018-12-18T02:27:21.448Z,3.06
2018-12-18T02:28:21.443Z,3.00
2018-12-18T02:29:21.425Z,3.06
2018-12-18T02:30:21.416Z,3.03
2018-12-18T02:31:21.425Z,3.11
2018-12-18T02:32:21.404Z,3.08
2018-12-18T02:33:21.386Z,3.06
2018-12-18T02:34:21.392Z,3.14
2018-12-18T02:35:21.361Z,3.11
2018-12-18T02:36:21.351Z,3.14
2018-12-18T02:37:21.341Z,3.17
2018-12-18T02:38:21.330Z,3.06
2018-12-18T02:39:21.313Z,3.08
2018-12-18T02:40:21.313Z,3.08
2018-12-18T02:41:21.299Z,3.05
2018-12-18T02:42:21.290Z,3.10
2018-12-18T02:43:21.278Z,3.14
2018-12-18T02:44:21.259Z,3.14
2018-12-18T02:45:21.259Z,3.17
2018-12-18T02:46:21.244Z,3.11
2018-12-18T02:47:21.243Z,3.17
2018-12-18T02:48:21.217Z,3.20
2018-12-18T02:49:21.208Z,3.18
2018-12-18T02:50:21.201Z,3.21
2018-12-18T02:51:21.189Z,3.20
2018-12-18T02:52:21.175Z,3.20
2018-12-18T02:53:21.163Z,3.13
2018-12-18T02:54:21.155Z,3.20
2018-12-18T02:55:21.149Z,3.15
2018-12-18T02:56:21.144Z,3.21
2018-12-18T02:57:21.136Z,3.17
2018-12-18T02:58:21.121Z,3.20
2018-12-18T02:59:21.102Z,3.14
2018-12-18T03:00:21.114Z,3.23
2018-12-18T03:01:21.075Z,3.20
2018-12-18T03:02:21.073Z,3.21
2018-12-18T03:03:21.056Z,3.21
2018-12-18T03:04:21.916Z,3.20
2018-12-18T03:05:21.036Z,3.21
2018-12-18T03:06:21.028Z,3.20
2018-12-18T03:07:21.017Z,3.14
2018-12-18T03:08:21.001Z,3.17
2018-12-18T03:09:20.992Z,3.23
2018-12-18T03:10:20.993Z,3.21
2018-12-18T03:11:20.970Z,3.24
2018-12-18T03:12:20.960Z,3.15
2018-12-18T03:13:20.952Z,3.20
2018-12-18T03:14:20.931Z,3.13
2018-12-18T03:15:20.929Z,3.15
2018-12-18T03:16:20.913Z,3.17
2018-12-18T03:17:20.907Z,3.18
2018-12-18T03:18:20.895Z,3.14
2018-12-18T03:19:20.885Z,3.15
2018-12-18T03:20:20.872Z,3.17
2018-12-18T03:21:20.870Z,3.15
2018-12-18T03:22:20.855Z,3.20
2018-12-18T03:23:20.849Z,3.17
2018-12-18T03:24:20.834Z,3.14
2018-12-18T03:25:20.819Z,3.17
2018-12-18T03:26:20.809Z,3.13
2018-12-18T03:27:20.803Z,3.18
2018-12-18T03:28:20.786Z,3.23
2018-12-18T03:29:20.776Z,3.14
2018-12-18T03:30:20.768Z,3.20
2018-12-18T03:31:20.762Z,3.15
2018-12-18T03:32:20.744Z,3.21
2018-12-18T03:33:20.768Z,3.17
2018-12-18T03:34:20.723Z,3.15
2018-12-18T03:35:20.719Z,3.18
2018-12-18T03:36:20.704Z,3.17
2018-12-18T03:37:20.693Z,3.21
2018-12-18T03:38:20.683Z,3.13
2018-12-18T03:39:20.663Z,3.17
2018-12-18T03:40:20.659Z,3.20
2018-12-18T03:41:20.650Z,3.17
2018-12-18T03:42:20.638Z,3.29
2018-12-18T03:43:20.626Z,3.24
2018-12-18T03:44:20.607Z,3.32
2018-12-18T03:45:20.600Z,3.32
2018-12-18T03:46:20.612Z,3.29
2018-12-18T03:47:20.579Z,3.24
2018-12-18T03:48:20.575Z,3.24
2018-12-18T03:49:20.564Z,3.24
2018-12-18T03:50:20.548Z,3.29
2018-12-18T03:51:20.537Z,3.24
2018-12-18T03:52:20.532Z,3.21
2018-12-18T03:53:20.519Z,3.21
2018-12-18T03:54:20.515Z,3.31
2018-12-18T03:55:20.497Z,3.24
2018-12-18T03:56:20.482Z,3.17
2018-12-18T03:57:20.471Z,3.32
2018-12-18T03:58:20.463Z,3.17
2018-12-18T03:59:20.477Z,3.28
2018-12-18T04:00:20.442Z,3.28
2018-12-18T04:01:20.431Z,3.29
2018-12-18T04:02:20.423Z,3.32
2018-12-18T04:03:20.417Z,3.23
2018-12-18T04:04:20.395Z,3.28
2018-12-18T04:05:20.386Z,3.26
2018-12-18T04:06:20.375Z,3.21
2018-12-18T04:07:20.364Z,3.15
2018-12-18T04:08:20.356Z,3.18
2018-12-18T04:09:20.349Z,3.28
2018-12-18T04:10:20.330Z,3.18
2018-12-18T04:11:20.321Z,3.23
2018-12-18T04:12:20.308Z,3.24
2018-12-18T04:13:20.303Z,3.23
2018-12-18T04:14:20.291Z,3.29
2018-12-18T04:15:20.279Z,3.29
2018-12-18T04:16:20.265Z,3.26
2018-12-18T04:17:20.255Z,3.23
2018-12-18T04:18:20.249Z,3.23
2018-12-18T04:19:20.235Z,3.28
2018-12-18T04:20:20.220Z,3.31
2018-12-18T04:21:20.215Z,3.24
2018-12-18T04:22:20.263Z,3.23
2018-12-18T04:23:20.195Z,3.28
2018-12-18T04:24:20.185Z,3.24
2018-12-18T04:25:20.230Z,3.32
2018-12-18T04:26:20.157Z,3.29
2018-12-18T04:27:20.153Z,3.29
2018-12-18T04:28:20.141Z,3.20
2018-12-18T04:29:20.124Z,3.23
2018-12-18T04:30:20.122Z,3.17
2018-12-18T04:31:20.107Z,3.28
2018-12-18T04:32:20.119Z,3.29
2018-12-18T04:33:20.082Z,3.23
2018-12-18T04:34:20.075Z,3.26
2018-12-18T04:35:20.057Z,3.28
2018-12-18T04:36:20.057Z,3.24
2018-12-18T04:37:20.043Z,3.32
2018-12-18T04:38:20.032Z,3.14
2018-12-18T04:39:20.027Z,3.21
2018-12-18T04:40:20.009Z,3.20
2018-12-18T04:41:20.006Z,3.29
2018-12-18T04:42:19.988Z,3.15
2018-12-18T04:43:19.989Z,3.26
2018-12-18T04:44:19.965Z,3.18
2018-12-18T04:45:19.980Z,3.20
2018-12-18T04:46:19.950Z,3.14
2018-12-18T04:47:19.937Z,3.17
2018-12-18T04:48:19.933Z,3.18
2018-12-18T04:49:19.923Z,3.17
2018-12-18T04:50:20.852Z,3.20
2018-12-18T04:51:19.888Z,3.14
2018-12-18T04:52:19.883Z,3.14
2018-12-18T04:53:19.873Z,3.20
2018-12-18T04:54:19.868Z,3.15
2018-12-18T04:55:19.857Z,3.20
2018-12-18T04:56:19.837Z,3.17
2018-12-18T04:57:19.836Z,3.18
2018-12-18T04:58:19.817Z,3.23
2018-12-18T04:59:19.804Z,3.24
2018-12-18T05:00:19.806Z,3.20
2018-12-18T05:01:19.787Z,3.21
2018-12-18T05:02:19.772Z,3.18
2018-12-18T05:03:19.763Z,3.17
2018-12-18T05:04:19.751Z,3.17
2018-12-18T05:05:19.747Z,3.28
2018-12-18T05:06:19.736Z,3.17
2018-12-18T05:07:19.740Z,3.24
2018-12-18T05:08:19.723Z,3.15
2018-12-18T05:09:19.692Z,3.15
2018-12-18T05:10:19.702Z,3.13
2018-12-18T05:11:19.678Z,3.17
2018-12-18T05:12:19.680Z,3.14
2018-12-18T05:13:19.656Z,3.20
2018-12-18T05:14:19.657Z,3.14
2018-12-18T05:15:19.647Z,3.14
2018-12-18T05:16:19.632Z,3.23
2018-12-18T05:17:19.610Z,3.17
2018-12-18T05:18:19.612Z,3.18
2018-12-18T05:19:19.592Z,3.17
2018-12-18T05:20:19.580Z,3.17
2018-12-18T05:21:19.576Z,3.17
2018-12-18T05:22:19.553Z,3.18
2018-12-18T05:23:19.552Z,3.20
2018-12-18T05:24:19.542Z,3.26
2018-12-18T05:25:19.520Z,3.24
2018-12-18T05:26:19.516Z,3.21
2018-12-18T05:27:19.498Z,3.29
2018-12-18T05:28:19.490Z,3.24
2018-12-18T05:29:19.494Z,3.23
2018-12-18T05:30:19.478Z,3.26
2018-12-18T05:31:19.456Z,3.23
2018-12-18T05:32:19.446Z,3.28
2018-12-18T05:33:19.432Z,3.35
2018-12-18T05:34:19.434Z,3.33
2018-12-18T05:35:19.422Z,3.35
2018-12-18T05:36:19.422Z,3.32
2018-12-18T05:37:19.396Z,3.32
2018-12-18T05:38:19.391Z,3.32
2018-12-18T05:39:19.370Z,3.35
2018-12-18T05:40:19.362Z,3.33
2018-12-18T05:41:19.349Z,3.33
2018-12-18T05:42:19.356Z,3.40
2018-12-18T05:43:19.326Z,3.43
2018-12-18T05:44:19.335Z,3.36
2018-12-18T05:45:19.309Z,3.43
2018-12-18T05:46:19.294Z,3.40
2018-12-18T05:47:19.300Z,3.45
2018-12-18T05:48:19.277Z,3.47
2018-12-18T05:49:19.263Z,3.52
2018-12-18T05:50:19.253Z,3.52
2018-12-18T05:51:19.251Z,3.48
2018-12-18T05:52:19.246Z,3.51
2018-12-18T05:53:19.244Z,3.47
2018-12-18T05:54:19.207Z,3.55
2018-12-18T05:55:19.198Z,3.47
2018-12-18T05:56:19.180Z,3.50
2018-12-18T05:57:19.187Z,3.55
2018-12-18T05:58:19.174Z,3.47
2018-12-18T05:59:19.148Z,3.47
2018-12-18T06:00:19.148Z,3.58
2018-12-18T06:01:19.127Z,3.50
2018-12-18T06:02:19.132Z,3.48
2018-12-18T06:03:19.109Z,3.58
2018-12-18T06:04:19.094Z,3.48
2018-12-18T06:05:19.097Z,3.58
2018-12-18T06:06:19.081Z,3.48
2018-12-18T06:07:19.069Z,3.55
2018-12-18T06:08:19.050Z,3.57
2018-12-18T06:09:19.044Z,3.55
2018-12-18T06:10:19.045Z,3.54
2018-12-18T06:11:19.039Z,3.55
2018-12-18T06:12:19.013Z,3.58
2018-12-18T06:13:19.005Z,3.54
2018-12-18T06:14:19.015Z,3.58
2018-12-18T06:15:18.979Z,3.55
2018-12-18T06:16:18.970Z,3.52
2018-12-18T06:17:18.955Z,3.55
2018-12-18T06:18:18.949Z,3.52
2018-12-18T06:19:18.979Z,3.55
2018-12-18T06:20:18.945Z,3.58
2018-12-18T06:21:18.912Z,3.58
2018-12-18T06:22:18.911Z,3.65
2018-12-18T06:23:18.893Z,3.58
2018-12-18T06:24:18.880Z,3.58
2018-12-18T06:25:18.869Z,3.57
2018-12-18T06:26:18.871Z,3.57
2018-12-18T06:27:18.849Z,3.60
2018-12-18T06:28:18.848Z,3.58
2018-12-18T06:29:18.825Z,3.58
2018-12-18T06:30:18.821Z,3.60
2018-12-18T06:31:18.809Z,3.65
2018-12-18T06:32:18.805Z,3.54
2018-12-18T06:33:18.806Z,3.65
2018-12-18T06:34:18.787Z,3.60
2018-12-18T06:35:18.771Z,3.58
2018-12-18T06:36:18.759Z,3.55
2018-12-18T06:37:18.745Z,3.58
2018-12-18T06:38:18.733Z,3.52
2018-12-18T06:39:18.735Z,3.58
2018-12-18T06:40:18.725Z,3.57
2018-12-18T06:41:18.700Z,3.61
2018-12-18T06:42:18.694Z,3.58
2018-12-18T06:43:18.707Z,3.47
2018-12-18T06:44:18.670Z,3.51
2018-12-18T06:45:18.663Z,3.58
2018-12-18T06:46:18.657Z,3.54
2018-12-18T06:47:18.659Z,3.54
2018-12-18T06:48:18.631Z,3.62
2018-12-18T06:49:18.615Z,3.58
2018-12-18T06:50:18.601Z,3.60
2018-12-18T06:51:18.606Z,3.58
2018-12-18T06:52:18.592Z,3.58
2018-12-18T06:53:18.574Z,3.58
2018-12-18T06:54:18.563Z,3.60
2018-12-18T06:55:18.549Z,3.58
2018-12-18T06:56:18.541Z,3.54
2018-12-18T06:57:18.549Z,3.55
2018-12-18T06:58:18.521Z,3.61
2018-12-18T06:59:18.509Z,3.55
2018-12-18T07:00:18.493Z,3.60
2018-12-18T07:01:18.486Z,3.62
2018-12-18T07:02:18.476Z,3.60
2018-12-18T07:03:18.462Z,3.52
2018-12-18T07:04:18.451Z,3.55
2018-12-18T07:05:18.441Z,3.58
2018-12-18T07:06:18.503Z,3.65
2018-12-18T07:07:18.423Z,3.52
2018-12-18T07:08:18.411Z,3.58
2018-12-18T07:09:18.410Z,3.58
2018-12-18T07:10:18.390Z,3.58
2018-12-18T07:11:18.375Z,3.58
2018-12-18T07:12:18.381Z,3.58
2018-12-18T07:13:18.359Z,3.62
2018-12-18T07:14:18.343Z,3.57
2018-12-18T07:15:18.343Z,3.62
2018-12-18T07:16:18.325Z,3.55
2018-12-18T07:17:18.317Z,3.55
2018-12-18T07:18:18.301Z,3.58
2018-12-18T07:19:18.301Z,3.60
2018-12-18T07:20:18.283Z,3.60
2018-12-18T07:21:18.275Z,3.57
2018-12-18T07:22:18.256Z,3.65
2018-12-18T07:23:18.247Z,3.58
2018-12-18T07:24:18.237Z,3.61
2018-12-18T07:25:18.244Z,3.58
2018-12-18T07:26:18.227Z,3.60
2018-12-18T07:27:18.203Z,3.58
2018-12-18T07:28:18.195Z,3.65
2018-12-18T07:29:18.177Z,3.58
2018-12-18T07:30:18.173Z,3.65
2018-12-18T07:31:18.155Z,3.60
2018-12-18T07:32:18.159Z,3.65
2018-12-18T07:33:18.137Z,3.60
2018-12-18T07:34:18.127Z,3.58
2018-12-18T07:35:23.278Z,3.60
2018-12-18T07:36:19.109Z,3.60
2018-12-18T07:37:18.095Z,3.61
2018-12-18T07:38:18.085Z,3.65
2018-12-18T07:39:18.074Z,3.69
2018-12-18T07:40:18.061Z,3.68
2018-12-18T07:41:18.055Z,3.72
2018-12-18T07:42:18.054Z,3.60
2018-12-18T07:43:18.035Z,3.60
2018-12-18T07:44:18.028Z,3.58
2018-12-18T07:45:18.011Z,3.75
2018-12-18T07:46:17.998Z,3.70
2018-12-18T07:47:17.993Z,3.72
2018-12-18T07:48:17.987Z,3.61
2018-12-18T07:49:17.974Z,3.70
2018-12-18T07:50:17.969Z,3.73
2018-12-18T07:51:17.948Z,3.73
2018-12-18T07:52:17.938Z,3.68
2018-12-18T07:53:17.926Z,3.61
2018-12-18T07:54:17.910Z,3.73
2018-12-18T07:55:17.909Z,3.75
2018-12-18T07:56:17.885Z,3.70
2018-12-18T07:57:17.882Z,3.73
2018-12-18T07:58:17.863Z,3.76
2018-12-18T07:59:17.859Z,3.79
2018-12-18T08:00:17.855Z,3.72
2018-12-18T08:01:17.843Z,3.72
2018-12-18T08:02:17.824Z,3.76
2018-12-18T08:03:17.809Z,3.69
2018-12-18T08:04:17.807Z,3.62
2018-12-18T08:05:17.793Z,3.78
2018-12-18T08:06:17.783Z,3.68
2018-12-18T08:07:17.771Z,3.73
2018-12-18T08:08:17.785Z,3.76
2018-12-18T08:09:17.755Z,3.72
2018-12-18T08:10:17.736Z,3.66
2018-12-18T08:11:17.727Z,3.76
2018-12-18T08:12:17.719Z,3.73
2018-12-18T08:13:17.702Z,3.79
2018-12-18T08:14:17.696Z,3.78
2018-12-18T08:15:17.688Z,3.76
2018-12-18T08:16:17.675Z,3.68
2018-12-18T08:17:17.665Z,3.83
2018-12-18T08:18:17.678Z,3.70
2018-12-18T08:19:17.656Z,3.72
2018-12-18T08:20:17.660Z,3.87
2018-12-18T08:21:17.622Z,3.73
2018-12-18T08:22:17.635Z,3.84
2018-12-18T08:23:17.597Z,3.69
2018-12-18T08:24:17.587Z,3.61
2018-12-18T08:25:17.596Z,3.76
2018-12-18T08:26:17.567Z,3.78
2018-12-18T08:27:17.580Z,3.75
2018-12-18T08:28:17.550Z,3.75
2018-12-18T08:29:17.541Z,3.80
2018-12-18T08:30:17.524Z,3.72
2018-12-18T08:31:17.532Z,3.78
2018-12-18T08:32:17.503Z,3.83
2018-12-18T08:33:17.527Z,3.86
2018-12-18T08:34:17.476Z,3.83
2018-12-18T08:35:17.468Z,3.78
2018-12-18T08:36:17.454Z,3.78
2018-12-18T08:37:17.447Z,3.86
2018-12-18T08:38:17.435Z,3.76
2018-12-18T08:39:17.424Z,3.84
2018-12-18T08:40:17.408Z,3.78
2018-12-18T08:41:17.423Z,3.87
2018-12-18T08:42:17.394Z,3.87
2018-12-18T08:43:17.383Z,3.79
2018-12-18T08:44:17.372Z,3.91
2018-12-18T08:45:17.353Z,3.93
2018-12-18T08:46:17.354Z,3.88
2018-12-18T08:47:17.339Z,3.94
2018-12-18T08:48:17.328Z,3.86
2018-12-18T08:49:17.313Z,3.91
2018-12-18T08:50:17.302Z,3.88
2018-12-18T08:51:17.289Z,3.90
2018-12-18T08:52:17.283Z,3.91
2018-12-18T08:53:17.271Z,3.93
2018-12-18T08:54:17.278Z,3.97
2018-12-18T08:55:17.260Z,3.91
2018-12-18T08:56:17.242Z,4.00
2018-12-18T08:57:17.229Z,3.96
2018-12-18T08:58:17.226Z,3.90
2018-12-18T08:59:17.212Z,3.98
2018-12-18T09:00:17.202Z,3.96
2018-12-18T09:01:17.197Z,3.96
2018-12-18T09:02:17.179Z,3.96
2018-12-18T09:03:17.166Z,4.05
2018-12-18T09:04:17.161Z,4.00
2018-12-18T09:05:17.148Z,4.05
2018-12-18T09:06:17.135Z,4.05
2018-12-18T09:07:17.130Z,4.09
2018-12-18T09:08:17.116Z,4.08
2018-12-18T09:09:17.105Z,4.06
2018-12-18T09:10:17.090Z,4.09
2018-12-18T09:11:17.085Z,4.12
2018-12-18T09:12:17.075Z,4.12
2018-12-18T09:13:17.059Z,4.14
2018-12-18T09:14:17.045Z,4.14
2018-12-18T09:15:17.035Z,4.16
2018-12-18T09:16:17.029Z,4.18
2018-12-18T09:17:17.034Z,4.15
2018-12-18T09:18:17.008Z,4.14
2018-12-18T09:19:16.991Z,4.20
2018-12-18T09:20:16.989Z,4.16
2018-12-18T09:21:16.970Z,4.20
2018-12-18T09:22:16.976Z,4.23
2018-12-18T09:23:16.946Z,4.23
2018-12-18T09:24:16.936Z,4.26
2018-12-18T09:25:16.932Z,4.32
2018-12-18T09:26:16.927Z,4.36
2018-12-18T09:27:16.945Z,4.33
2018-12-18T09:28:16.903Z,4.34
2018-12-18T09:29:16.881Z,4.32
2018-12-18T09:30:16.889Z,4.33
2018-12-18T09:31:16.860Z,4.36
2018-12-18T09:32:16.873Z,4.41
2018-12-18T09:33:16.849Z,4.32
2018-12-18T09:34:16.849Z,4.40
2018-12-18T09:35:16.820Z,4.33
2018-12-18T09:36:16.813Z,4.33
2018-12-18T09:37:16.807Z,4.33
2018-12-18T09:38:16.799Z,4.34
2018-12-18T09:39:16.782Z,4.44
2018-12-18T09:40:16.795Z,4.30
2018-12-18T09:41:16.754Z,4.47
2018-12-18T09:42:16.763Z,4.34
2018-12-18T09:43:16.736Z,4.44
2018-12-18T09:44:16.723Z,4.40
2018-12-18T09:45:16.718Z,4.41
2018-12-18T09:46:16.710Z,4.51
2018-12-18T09:47:16.699Z,4.37
2018-12-18T09:48:16.688Z,4.51
2018-12-18T09:49:16.681Z,4.48
2018-12-18T09:50:16.664Z,4.58
2018-12-18T09:51:16.657Z,4.54
2018-12-18T09:52:16.653Z,4.58
2018-12-18T09:53:16.638Z,4.52
2018-12-18T09:54:16.646Z,4.54
2018-12-18T09:55:16.609Z,4.52
2018-12-18T09:56:16.640Z,4.52
2018-12-18T09:57:16.587Z,4.59
2018-12-18T09:58:16.583Z,4.55
2018-12-18T09:59:16.575Z,4.55
2018-12-18T10:00:16.563Z,4.59
2018-12-18T10:01:16.583Z,4.60
2018-12-18T10:02:16.535Z,4.60
2018-12-18T10:03:16.546Z,4.58
2018-12-18T10:04:16.512Z,4.65
2018-12-18T10:05:16.512Z,4.69
2018-12-18T10:06:16.506Z,4.63
2018-12-18T10:07:16.483Z,4.69
2018-12-18T10:08:16.468Z,4.72
2018-12-18T10:09:16.460Z,4.77
2018-12-18T10:10:16.453Z,4.73
2018-12-18T10:11:16.448Z,4.80
2018-12-18T10:12:16.457Z,4.75
2018-12-18T10:13:16.416Z,4.73
2018-12-18T10:14:16.408Z,4.75
2018-12-18T10:15:16.392Z,4.77
2018-12-18T10:16:16.402Z,4.86
2018-12-18T10:17:16.374Z,4.91
2018-12-18T10:18:16.363Z,4.96
2018-12-18T10:19:16.350Z,4.94
2018-12-18T10:20:16.360Z,4.92
2018-12-18T10:21:16.330Z,4.88
2018-12-18T10:22:16.330Z,4.97
2018-12-18T10:23:16.321Z,4.99
2018-12-18T10:24:16.692Z,4.97
2018-12-18T10:25:16.286Z,4.96
2018-12-18T10:26:16.277Z,5.02
2018-12-18T10:27:16.269Z,5.02
2018-12-18T10:28:16.269Z,5.03
2018-12-18T10:29:16.275Z,4.88
2018-12-18T10:30:16.229Z,4.99
2018-12-18T10:31:16.233Z,4.99
2018-12-18T10:32:16.210Z,5.00
2018-12-18T10:33:16.198Z,4.97
2018-12-18T10:34:16.207Z,5.00
2018-12-18T10:35:16.177Z,5.06
2018-12-18T10:36:16.182Z,5.09
2018-12-18T10:37:16.160Z,5.06
2018-12-18T10:38:16.149Z,5.09
2018-12-18T10:39:16.155Z,5.12
2018-12-18T10:40:16.127Z,5.21
2018-12-18T10:41:16.137Z,5.18
2018-12-18T10:42:16.103Z,5.22
2018-12-18T10:43:16.093Z,5.20
2018-12-18T10:44:16.080Z,5.10
2018-12-18T10:45:16.085Z,5.20
2018-12-18T10:46:16.060Z,5.25
2018-12-18T10:47:16.058Z,5.22
2018-12-18T10:48:16.031Z,5.27
2018-12-18T10:49:16.042Z,5.20
2018-12-18T10:50:16.075Z,5.24
2018-12-18T10:51:16.062Z,5.21
2018-12-18T10:52:16.003Z,5.17
2018-12-18T10:53:15.987Z,5.21
2018-12-18T10:54:15.971Z,5.24
2018-12-18T10:55:15.957Z,5.22
2018-12-18T10:56:15.984Z,5.13
2018-12-18T10:57:15.950Z,5.18
2018-12-18T10:58:15.923Z,5.17
2018-12-18T10:59:15.919Z,5.24
2018-12-18T11:00:15.909Z,5.27
2018-12-18T11:01:15.905Z,5.25
2018-12-18T11:02:15.911Z,5.31
2018-12-18T11:03:15.879Z,5.36
2018-12-18T11:04:15.859Z,5.33
2018-12-18T11:05:15.875Z,5.31
2018-12-18T11:06:15.960Z,5.38
2018-12-18T11:07:15.845Z,5.24
2018-12-18T11:08:15.819Z,5.24
2018-12-18T11:09:15.813Z,5.27
2018-12-18T11:10:15.790Z,5.20
2018-12-18T11:11:15.787Z,5.21
2018-12-18T11:12:15.809Z,5.22
2018-12-18T11:13:15.765Z,5.28
2018-12-18T11:14:15.755Z,5.27
2018-12-18T11:15:15.769Z,5.36
2018-12-18T11:16:15.731Z,5.36
2018-12-18T11:17:15.715Z,5.42
2018-12-18T11:18:15.705Z,5.43
2018-12-18T11:19:15.697Z,5.46
2018-12-18T11:20:15.696Z,5.45
2018-12-18T11:21:15.671Z,5.51
2018-12-18T11:22:15.661Z,5.58
2018-12-18T11:23:15.649Z,5.57
2018-12-18T11:24:15.639Z,5.63
2018-12-18T11:25:15.630Z,5.51
2018-12-18T11:26:15.637Z,5.57
2018-12-18T11:27:15.607Z,5.58
2018-12-18T11:28:15.611Z,5.64
2018-12-18T11:29:15.585Z,5.74
2018-12-18T11:30:15.585Z,5.68
2018-12-18T11:31:15.561Z,5.61
2018-12-18T11:32:15.613Z,5.63
2018-12-18T11:33:15.544Z,5.61
2018-12-18T11:34:15.531Z,5.67
2018-12-18T11:35:15.543Z,5.67
2018-12-18T11:36:16.651Z,5.65
2018-12-18T11:37:15.510Z,5.71
2018-12-18T11:38:15.528Z,5.76
2018-12-18T11:39:15.473Z,5.79
2018-12-18T11:40:15.465Z,5.78
2018-12-18T11:41:15.463Z,5.76
2018-12-18T11:42:15.451Z,5.76
2018-12-18T11:43:15.437Z,5.78
2018-12-18T11:44:15.441Z,5.78
2018-12-18T11:45:15.415Z,5.65
2018-12-18T11:46:15.402Z,5.63
2018-12-18T11:47:15.385Z,5.63
2018-12-18T11:48:15.426Z,5.64
2018-12-18T11:49:15.372Z,5.65
2018-12-18T11:50:15.366Z,5.48
2018-12-18T11:51:15.371Z,5.56
2018-12-18T11:52:15.344Z,5.51
2018-12-18T11:53:15.326Z,5.51
2018-12-18T11:54:15.316Z,5.54
2018-12-18T11:55:15.333Z,5.49
2018-12-18T11:56:15.305Z,5.43
2018-12-18T11:57:15.282Z,5.46
2018-12-18T11:58:15.268Z,5.43
2018-12-18T11:59:15.432Z,5.42
2018-12-18T12:00:15.247Z,5.43
2018-12-18T12:01:15.237Z,5.38
2018-12-18T12:02:15.220Z,5.31
2018-12-18T12:03:15.213Z,5.39
2018-12-18T12:04:15.207Z,5.38
2018-12-18T12:05:15.197Z,5.35
2018-12-18T12:06:15.185Z,5.31
2018-12-18T12:07:15.168Z,5.35
2018-12-18T12:08:15.155Z,5.35
2018-12-18T12:09:15.147Z,5.35
2018-12-18T12:10:15.134Z,5.36
2018-12-18T12:11:15.122Z,5.40
2018-12-18T12:12:15.115Z,5.36
2018-12-18T12:13:15.106Z,5.45
2018-12-18T12:14:15.089Z,5.45
2018-12-18T12:15:15.084Z,5.48
2018-12-18T12:16:15.080Z,5.53
2018-12-18T12:17:15.067Z,5.58
2018-12-18T12:18:15.060Z,5.53
2018-12-18T12:19:15.047Z,5.63
2018-12-18T12:20:15.037Z,5.65
2018-12-18T12:21:15.036Z,5.60
2018-12-18T12:22:15.005Z,5.63
2018-12-18T12:23:14.991Z,5.75
2018-12-18T12:24:15.003Z,5.74
2018-12-18T12:25:14.973Z,5.83
2018-12-18T12:26:14.961Z,5.75
2018-12-18T12:27:14.971Z,5.86
2018-12-18T12:28:14.937Z,5.85
2018-12-18T12:29:14.935Z,5.85
2018-12-18T12:30:14.922Z,6.01
2018-12-18T12:31:14.911Z,5.93
2018-12-18T12:32:14.900Z,5.82
2018-12-18T12:33:14.886Z,5.91
2018-12-18T12:34:14.880Z,5.97
2018-12-18T12:35:14.862Z,5.99
2018-12-18T12:36:14.860Z,6.03
2018-12-18T12:37:14.841Z,6.11
2018-12-18T12:38:14.830Z,6.08
2018-12-18T12:39:14.818Z,6.11
2018-12-18T12:40:14.814Z,6.08
2018-12-18T12:41:14.796Z,6.08
2018-12-18T12:42:14.795Z,6.19
2018-12-18T12:43:14.784Z,6.17
2018-12-18T12:44:14.772Z,6.37
2018-12-18T12:45:14.751Z,6.36
2018-12-18T12:46:14.743Z,6.51
2018-12-18T12:47:14.740Z,6.41
2018-12-18T12:48:14.714Z,6.36
2018-12-18T12:49:14.710Z,6.33
2018-12-18T12:50:14.726Z,6.27
2018-12-18T12:51:14.686Z,6.41
2018-12-18T12:52:14.674Z,6.37
2018-12-18T12:53:14.676Z,6.62
2018-12-18T12:54:14.655Z,6.71
2018-12-18T12:55:14.644Z,6.77
2018-12-18T12:56:14.632Z,6.74
2018-12-18T12:57:14.622Z,6.62
2018-12-18T12:58:14.610Z,6.71
2018-12-18T12:59:14.603Z,6.71
2018-12-18T13:00:14.604Z,6.77
2018-12-18T13:01:14.586Z,6.71
2018-12-18T13:02:14.567Z,6.67
2018-12-18T13:03:14.572Z,6.69
2018-12-18T13:04:14.562Z,6.62
2018-12-18T13:05:14.552Z,6.73
2018-12-18T13:06:14.522Z,6.62
2018-12-18T13:07:14.520Z,6.61
2018-12-18T13:08:14.498Z,6.54
2018-12-18T13:09:14.497Z,6.55
2018-12-18T13:10:14.482Z,6.49
2018-12-18T13:11:14.470Z,6.43
2018-12-18T13:12:14.457Z,6.40
2018-12-18T13:13:14.445Z,6.37
2018-12-18T13:14:14.438Z,6.41
2018-12-18T13:15:14.431Z,6.40
2018-12-18T13:16:14.444Z,6.44
2018-12-18T13:17:14.409Z,6.43
2018-12-18T13:18:14.396Z,6.48